Terminal Aerodrome Forecast
Issued by NWS

Home | Current Version | Previous Version | Graphics & Text | Print | Product List | Glossary On
Versions: 1 2 3 4 5 6 7 8 9 10 11 12 13 14 15 16 17 18 19 20 21
000
FTUS43 KIWX 170500
TAFSBN
TAF
KSBN 170521Z 1706/1806 22004KT P6SM SCT025 OVC050
      TEMPO 1710/1713 4SM BR BKN025
     FM171400 09006KT P6SM BKN020
     FM171900 04005KT P6SM BKN035=

USA.gov is the U.S. government's official web portal to all federal, state and local government web resources and services.